Time;durP1;ratioP1;P1;durP2;ratioP2;P2;SDS_P1;SDS_P2;PMS_P1;PMS_P2;Temp;Humidity;BMP_temperature;BMP_pressure;BME280_temperature;BME280_humidity;BME280_pressure;Samples;Min_cycle;Max_cycle;Signal;HPM_P1;HPM_P2
2022/05/16 00:00:38;;;;;;;9.77;3.88;;;13.20;99.90;;;;;;5115355;27;20050;-81
2022/05/16 00:03:06;;;;;;;16.75;4.47;;;13.20;99.90;;;;;;5134816;27;20043;-82
2022/05/16 00:05:32;;;;;;;8.70;4.07;;;13.20;99.90;;;;;;5134825;27;20248;-80
2022/05/16 00:07:58;;;;;;;12.75;3.95;;;13.20;99.90;;;;;;5135768;27;20043;-81
2022/05/16 00:10:25;;;;;;;9.75;3.95;;;13.20;99.90;;;;;;5133822;27;20513;-81
2022/05/16 00:12:54;;;;;;;11.90;3.60;;;13.20;99.90;;;;;;5115699;28;20071;-80
2022/05/16 00:15:21;;;;;;;9.98;3.90;;;13.20;99.90;;;;;;5126841;27;20130;-80
2022/05/16 00:17:47;;;;;;;11.52;4.57;;;13.20;99.90;;;;;;5098391;27;20039;-82
2022/05/16 00:20:14;;;;;;;8.10;3.30;;;13.20;99.90;;;;;;5133172;27;20526;-81
2022/05/16 00:22:39;;;;;;;11.80;3.95;;;13.20;99.90;;;;;;5134003;27;20112;-78
2022/05/16 00:25:08;;;;;;;9.50;3.83;;;13.20;99.90;;;;;;5115668;28;20545;-80
2022/05/16 00:27:34;;;;;;;13.45;3.85;;;13.20;99.90;;;;;;5126236;27;20104;-80
2022/05/16 00:30:09;;;;;;;7.55;3.60;;;13.20;99.90;;;;;;5096570;28;20093;-81
2022/05/16 00:32:35;;;;;;;;;;;13.20;99.90;;;;;;5130776;27;20039;-82
2022/05/16 00:35:01;;;;;;;10.00;3.45;;;13.20;99.90;;;;;;5134609;27;20334;-81
2022/05/16 00:37:27;;;;;;;8.00;3.78;;;13.20;99.90;;;;;;5131932;27;20070;-80
2022/05/16 00:39:53;;;;;;;8.85;3.60;;;13.20;99.90;;;;;;5135914;27;20478;-80
2022/05/16 00:42:19;;;;;;;12.75;3.63;;;13.20;99.90;;;;;;5120357;27;20051;-80
2022/05/16 00:44:45;;;;;;;12.10;3.63;;;13.10;99.90;;;;;;5114223;28;20046;-81
2022/05/16 00:47:11;;;;;;;14.75;3.97;;;13.10;99.90;;;;;;5124367;27;20047;-80
2022/05/16 00:49:42;;;;;;;5.72;3.42;;;13.20;99.90;;;;;;5135808;27;20481;-81
2022/05/16 00:52:44;;;;;;;8.05;3.20;;;13.10;99.90;;;;;;5122391;27;20103;-81
2022/05/16 00:55:14;;;;;;;9.90;3.83;;;13.20;99.90;;;;;;5077398;27;20062;-80
2022/05/16 00:57:52;;;;;;;10.00;3.33;;;13.10;99.90;;;;;;5126233;27;20488;-81
2022/05/16 01:00:20;;;;;;;8.57;3.42;;;13.10;99.90;;;;;;5133642;27;20096;-81
2022/05/16 01:05:39;;;;;;;8.32;3.58;;;13.10;99.90;;;;;;5117657;27;20054;-81
2022/05/16 01:08:08;;;;;;;9.40;3.25;;;13.10;99.90;;;;;;5113858;27;20089;-80
2022/05/16 01:10:35;;;;;;;8.65;3.65;;;13.00;99.90;;;;;;5114717;27;20061;-81
2022/05/16 01:13:03;;;;;;;10.18;3.72;;;13.00;99.90;;;;;;5113770;28;20035;-80
2022/05/16 01:15:31;;;;;;;10.43;3.85;;;13.00;99.90;;;;;;5125125;27;20106;-80
2022/05/16 01:17:57;;;;;;;9.35;3.72;;;13.00;99.90;;;;;;5117049;27;20046;-81
2022/05/16 01:20:23;;;;;;;12.15;4.35;;;12.90;99.90;;;;;;5132467;27;20039;-81
2022/05/16 01:22:52;;;;;;;6.38;3.17;;;12.90;99.90;;;;;;5131019;27;20043;-80
2022/05/16 01:25:27;;;;;;;13.10;4.43;;;12.90;99.90;;;;;;5112043;27;20043;-81
2022/05/16 01:28:04;;;;;;;9.38;3.40;;;12.90;99.90;;;;;;5114552;28;20123;-81
2022/05/16 01:30:33;;;;;;;13.10;4.05;;;12.90;99.90;;;;;;5124118;27;20408;-81
2022/05/16 01:32:59;;;;;;;10.25;3.25;;;12.90;99.90;;;;;;5132810;27;20050;-80
2022/05/16 01:35:27;;;;;;;9.13;3.60;;;12.90;99.90;;;;;;5118770;27;20044;-81
2022/05/16 01:40:41;;;;;;;10.00;3.50;;;12.90;99.90;;;;;;5130561;27;20047;-81
2022/05/16 01:43:08;;;;;;;12.40;3.90;;;12.80;99.90;;;;;;5133347;27;20470;-81
2022/05/16 01:45:34;;;;;;;7.55;3.85;;;12.80;99.90;;;;;;5132870;27;20095;-81
2022/05/16 01:48:00;;;;;;;10.60;3.67;;;12.80;99.90;;;;;;5134044;27;20035;-81
2022/05/16 01:50:26;;;;;;;8.55;3.25;;;12.80;99.90;;;;;;5102270;28;20054;-82
2022/05/16 01:52:51;;;;;;;13.00;3.50;;;12.80;99.90;;;;;;5114027;28;20046;-81
2022/05/16 01:55:18;;;;;;;7.90;3.58;;;12.70;99.90;;;;;;5120667;27;20134;-81
2022/05/16 01:57:44;;;;;;;10.23;3.90;;;12.70;99.90;;;;;;5116147;28;20047;-80
2022/05/16 02:00:13;;;;;;;5.88;2.88;;;12.70;99.90;;;;;;5119227;27;20043;-82
2022/05/16 02:02:44;;;;;;;9.75;3.80;;;12.70;99.90;;;;;;5155334;27;20095;-81
2022/05/16 02:05:13;;;;;;;9.07;3.33;;;12.70;99.90;;;;;;5139997;27;20039;-81
2022/05/16 02:07:39;;;;;;;11.18;3.85;;;12.70;99.90;;;;;;5142624;27;20043;-82
2022/05/16 02:10:07;;;;;;;7.75;3.15;;;12.70;99.90;;;;;;5145184;27;20039;-82
2022/05/16 02:12:34;;;;;;;9.50;4.25;;;12.70;99.90;;;;;;5119427;27;20054;-82
2022/05/16 02:15:01;;;;;;;6.35;3.10;;;12.70;99.90;;;;;;5124602;28;20088;-81
2022/05/16 02:17:26;;;;;;;10.70;3.58;;;12.60;99.90;;;;;;5115978;28;20047;-81
2022/05/16 02:19:52;;;;;;;7.15;3.47;;;12.60;99.90;;;;;;5115540;28;20039;-81
2022/05/16 02:25:03;;;;;;;6.60;3.42;;;12.60;99.90;;;;;;5126424;28;20059;-81
2022/05/16 02:27:29;;;;;;;5.40;2.97;;;12.50;99.90;;;;;;5144992;27;20084;-82
2022/05/16 02:29:54;;;;;;;9.20;3.22;;;12.50;99.90;;;;;;5154282;27;20039;-80
2022/05/16 02:32:20;;;;;;;8.07;3.63;;;12.50;99.90;;;;;;5151191;27;20100;-81
2022/05/16 02:34:46;;;;;;;7.57;3.40;;;12.40;99.90;;;;;;5135665;27;20420;-81
2022/05/16 02:37:12;;;;;;;8.07;3.83;;;12.40;99.90;;;;;;5144470;27;20054;-80
2022/05/16 02:39:38;;;;;;;11.50;3.55;;;12.40;99.90;;;;;;5138422;27;20048;-81
2022/05/16 02:42:04;;;;;;;11.18;3.90;;;12.30;99.90;;;;;;5119155;27;20184;-81
2022/05/16 02:44:30;;;;;;;9.68;3.30;;;12.40;99.90;;;;;;5135953;27;20482;-81
2022/05/16 02:46:56;;;;;;;8.27;3.30;;;12.30;99.90;;;;;;5137788;27;20115;-81
2022/05/16 02:49:22;;;;;;;8.18;3.58;;;12.30;99.90;;;;;;5121383;27;20127;-82
2022/05/16 02:51:48;;;;;;;10.00;3.15;;;12.20;99.90;;;;;;5134868;27;20478;-81
2022/05/16 02:54:14;;;;;;;9.18;3.35;;;12.20;99.90;;;;;;5119556;27;20058;-81
2022/05/16 02:56:40;;;;;;;9.05;3.47;;;12.20;99.90;;;;;;5135726;27;20043;-80
2022/05/16 02:59:06;;;;;;;7.18;3.13;;;12.10;99.90;;;;;;5119567;27;20047;-81
2022/05/16 03:01:34;;;;;;;7.85;3.08;;;12.20;99.90;;;;;;5119557;27;20039;-81
2022/05/16 03:04:01;;;;;;;6.93;3.47;;;12.10;99.90;;;;;;5132712;27;20047;-82
2022/05/16 03:06:27;;;;;;;8.77;3.20;;;12.10;99.90;;;;;;5124904;27;20047;-81
2022/05/16 03:08:53;;;;;;;12.45;3.85;;;12.10;99.90;;;;;;5153739;27;20046;-81
2022/05/16 03:11:19;;;;;;;6.70;3.33;;;12.10;99.90;;;;;;5133289;27;20055;-80
2022/05/16 03:13:45;;;;;;;8.90;3.33;;;12.00;99.90;;;;;;5137693;27;20581;-82
2022/05/16 03:16:11;;;;;;;8.07;3.15;;;12.00;99.90;;;;;;5137105;27;20074;-81
2022/05/16 03:18:36;;;;;;;10.70;2.85;;;12.00;99.90;;;;;;5118288;27;20126;-81
2022/05/16 03:21:02;;;;;;;6.07;2.97;;;11.90;99.90;;;;;;5141880;27;20099;-80
2022/05/16 03:23:28;;;;;;;12.45;5.25;;;11.90;99.90;;;;;;5137306;27;20479;-80
2022/05/16 03:25:54;;;;;;;7.05;3.50;;;11.90;99.90;;;;;;5100411;27;20045;-80
2022/05/16 03:28:20;;;;;;;10.27;2.83;;;11.90;99.90;;;;;;5147716;27;20043;-81
2022/05/16 03:30:46;;;;;;;5.13;2.30;;;11.90;99.90;;;;;;5158154;27;20038;-81
2022/05/16 03:33:12;;;;;;;4.57;2.95;;;11.90;99.90;;;;;;5133225;27;20450;-81
2022/05/16 03:35:37;;;;;;;7.43;2.85;;;11.90;99.90;;;;;;5118623;27;20081;-81
2022/05/16 03:38:04;;;;;;;6.25;2.47;;;11.90;99.90;;;;;;5119205;27;20035;-81
2022/05/16 03:40:42;;;;;;;7.03;2.80;;;11.90;99.90;;;;;;5100635;27;20107;-81
2022/05/16 03:43:09;;;;;;;9.77;2.88;;;11.90;99.90;;;;;;5118207;27;20043;-80
2022/05/16 03:45:36;;;;;;;6.38;2.70;;;11.90;99.90;;;;;;5136284;27;20084;-81
2022/05/16 03:48:02;;;;;;;6.65;2.42;;;11.90;99.90;;;;;;5135686;27;20047;-81
2022/05/16 03:50:28;;;;;;;8.02;2.50;;;11.90;99.90;;;;;;5141306;27;20031;-81
2022/05/16 03:52:54;;;;;;;6.18;3.15;;;11.80;99.90;;;;;;5123174;27;20509;-80
2022/05/16 03:55:20;;;;;;;4.25;2.55;;;11.90;99.90;;;;;;5150357;27;20058;-81
2022/05/16 03:57:46;;;;;;;3.88;2.28;;;11.80;99.90;;;;;;5138951;27;20051;-81
2022/05/16 04:00:14;;;;;;;5.22;2.60;;;11.80;99.90;;;;;;5134668;27;20147;-81
2022/05/16 04:02:41;;;;;;;5.57;2.60;;;11.80;99.90;;;;;;5117601;27;20043;-79
2022/05/16 04:05:08;;;;;;;7.72;2.53;;;11.90;99.90;;;;;;5129165;27;20076;-81
2022/05/16 04:07:35;;;;;;;6.65;2.95;;;11.80;99.90;;;;;;5117308;27;20534;-80
2022/05/16 04:10:01;;;;;;;5.78;2.30;;;11.90;99.90;;;;;;5135982;27;20180;-81
2022/05/16 04:12:27;;;;;;;5.68;2.30;;;11.90;99.90;;;;;;5118418;27;20096;-81
2022/05/16 04:14:53;;;;;;;7.20;2.38;;;11.90;99.90;;;;;;5147230;27;20546;-81
2022/05/16 04:17:19;;;;;;;7.45;2.55;;;11.90;99.90;;;;;;5138328;27;20401;-80
2022/05/16 04:19:45;;;;;;;7.00;2.58;;;11.90;99.90;;;;;;5111690;27;20061;-80
2022/05/16 04:22:12;;;;;;;6.78;2.15;;;11.90;99.90;;;;;;5156329;27;20039;-79
2022/05/16 04:24:38;;;;;;;5.10;2.17;;;11.90;99.90;;;;;;5154841;27;20050;-81
2022/05/16 04:27:04;;;;;;;4.72;1.75;;;12.00;99.90;;;;;;5157066;27;20110;-79
2022/05/16 04:29:30;;;;;;;4.18;1.95;;;12.00;99.90;;;;;;5128795;27;20558;-80
2022/05/16 04:31:56;;;;;;;4.53;2.10;;;12.00;99.90;;;;;;5117547;27;20046;-81
2022/05/16 04:34:21;;;;;;;4.88;2.28;;;12.00;99.90;;;;;;5118812;27;20045;-81
2022/05/16 04:36:47;;;;;;;7.85;2.60;;;12.10;99.90;;;;;;5136923;27;20089;-81
2022/05/16 04:39:13;;;;;;;5.15;2.15;;;12.10;99.90;;;;;;5133506;27;20042;-80
2022/05/16 04:44:23;;;;;;;7.40;2.20;;;12.20;99.90;;;;;;5136059;27;20048;-80
2022/05/16 04:46:49;;;;;;;5.05;2.00;;;12.20;99.90;;;;;;5138155;27;20389;-81
2022/05/16 04:49:14;;;;;;;4.90;2.00;;;12.30;99.90;;;;;;5134531;27;20505;-81
2022/05/16 04:51:40;;;;;;;7.43;2.40;;;12.40;99.90;;;;;;5117172;27;20039;-80
2022/05/16 04:54:06;;;;;;;6.13;2.20;;;12.40;99.90;;;;;;5116525;27;20039;-81
2022/05/16 04:56:32;;;;;;;7.32;1.95;;;12.40;99.90;;;;;;5112634;28;20055;-81
2022/05/16 04:58:58;;;;;;;3.70;2.22;;;12.50;99.90;;;;;;5112564;28;20096;-81
2022/05/16 05:01:24;;;;;;;8.02;2.10;;;12.50;99.90;;;;;;5096114;28;20051;-80
2022/05/16 05:03:50;;;;;;;6.68;2.30;;;12.60;99.90;;;;;;5114092;28;20043;-81
2022/05/16 05:06:17;;;;;;;6.43;2.55;;;12.70;99.90;;;;;;5113903;27;20368;-82
2022/05/16 05:08:44;;;;;;;7.45;2.25;;;12.70;99.90;;;;;;5134214;27;20055;-81
2022/05/16 05:16:46;;;;;;;7.88;2.55;;;12.90;99.90;;;;;;5120759;27;20047;-81
2022/05/16 05:19:12;;;;;;;6.10;2.28;;;12.90;99.90;;;;;;5113452;27;20047;-80
2022/05/16 05:21:37;;;;;;;6.88;2.95;;;12.90;99.90;;;;;;5132667;27;20099;-81
2022/05/16 05:24:03;;;;;;;9.23;2.67;;;12.90;99.90;;;;;;5134936;27;20039;-81
2022/05/16 05:26:29;;;;;;;6.97;1.90;;;12.90;99.90;;;;;;5114948;27;20051;-81
2022/05/16 05:28:56;;;;;;;8.98;3.22;;;12.90;99.90;;;;;;5113456;28;20105;-81
2022/05/16 05:31:25;;;;;;;6.28;2.17;;;13.00;99.90;;;;;;5130964;27;20486;-80
2022/05/16 05:33:52;;;;;;;6.70;2.42;;;13.00;99.90;;;;;;5131779;27;20387;-79
2022/05/16 05:36:17;;;;;;;8.60;3.05;;;13.00;99.90;;;;;;5128815;27;20172;-80
2022/05/16 05:38:43;;;;;;;6.90;2.80;;;13.00;99.90;;;;;;5115438;27;20542;-81
2022/05/16 05:41:09;;;;;;;5.20;2.40;;;13.10;99.90;;;;;;5113271;27;20044;-80
2022/05/16 05:43:36;;;;;;;5.63;2.05;;;13.20;99.90;;;;;;5113214;27;20054;-81
2022/05/16 05:46:03;;;;;;;8.77;2.55;;;13.40;99.90;;;;;;5112908;28;20050;-81
2022/05/16 05:48:29;;;;;;;9.40;2.80;;;13.60;99.90;;;;;;5099372;28;20058;-79
2022/05/16 05:50:58;;;;;;;6.03;2.38;;;13.80;99.90;;;;;;5114331;28;20495;-79
2022/05/16 05:53:24;;;;;;;6.05;2.63;;;13.90;99.90;;;;;;5126327;27;20043;-79
2022/05/16 05:55:50;;;;;;;6.55;2.20;;;14.10;99.90;;;;;;5112480;28;20583;-78
2022/05/16 05:58:16;;;;;;;10.00;2.35;;;14.20;99.90;;;;;;5108478;28;20052;-81
2022/05/16 06:00:42;;;;;;;8.48;2.30;;;14.20;99.90;;;;;;5117735;27;20039;-80
2022/05/16 06:03:08;;;;;;;11.30;2.80;;;14.30;99.90;;;;;;5116031;28;20090;-78
2022/05/16 06:05:34;;;;;;;8.57;2.35;;;14.40;99.90;;;;;;5115181;28;20083;-78
2022/05/16 06:08:00;;;;;;;7.13;2.92;;;14.60;99.90;;;;;;5112673;28;20046;-77
2022/05/16 06:10:26;;;;;;;5.65;2.30;;;14.70;99.90;;;;;;5095590;28;20432;-78
2022/05/16 06:12:53;;;;;;;4.45;2.40;;;14.80;99.90;;;;;;5113330;28;20553;-77
2022/05/16 06:15:20;;;;;;;7.57;2.58;;;15.00;99.90;;;;;;5112776;28;20052;-78
2022/05/16 06:17:46;;;;;;;7.60;2.55;;;15.10;99.90;;;;;;5115361;28;20107;-78
2022/05/16 06:20:13;;;;;;;7.13;2.65;;;15.20;99.90;;;;;;5133274;27;20047;-77
2022/05/16 06:22:39;;;;;;;7.40;2.65;;;15.40;99.90;;;;;;5131546;27;20050;-78
2022/05/16 06:25:31;;;;;;;6.30;2.20;;;15.50;99.90;;;;;;5124567;28;20039;-77
2022/05/16 06:28:05;;;;;;;8.05;2.63;;;15.60;99.90;;;;;;5130290;27;20089;-78
2022/05/16 06:30:32;;;;;;;9.65;2.70;;;15.80;99.90;;;;;;5123264;28;20047;-78
2022/05/16 06:32:58;;;;;;;7.75;2.70;;;15.90;99.90;;;;;;5095502;28;20059;-79
2022/05/16 06:35:24;;;;;;;5.07;2.45;;;16.00;99.90;;;;;;5111702;28;20048;-78
2022/05/16 06:37:50;;;;;;;11.88;2.50;;;16.10;99.90;;;;;;5115766;28;20079;-78
2022/05/16 06:40:18;;;;;;;10.07;2.83;;;16.20;99.90;;;;;;5101666;28;20046;-78
2022/05/16 06:42:45;;;;;;;7.97;2.50;;;16.30;99.90;;;;;;5124913;28;20040;-78
2022/05/16 06:45:11;;;;;;;7.72;3.08;;;16.40;99.90;;;;;;5132708;28;20474;-79
2022/05/16 06:47:40;;;;;;;9.73;3.28;;;16.50;99.90;;;;;;5115710;28;20084;-78
2022/05/16 06:50:07;;;;;;;10.55;3.63;;;16.60;99.90;;;;;;5094412;28;20082;-79
2022/05/16 06:52:32;;;;;;;8.85;3.22;;;16.70;99.90;;;;;;5120392;28;20031;-78
2022/05/16 06:55:00;;;;;;;12.55;2.80;;;16.80;99.90;;;;;;5119307;27;20553;-78
2022/05/16 06:57:27;;;;;;;7.20;2.38;;;16.80;99.90;;;;;;5098076;28;20135;-79
2022/05/16 06:59:53;;;;;;;9.52;2.60;;;16.90;99.90;;;;;;5107365;28;20047;-78
2022/05/16 07:02:19;;;;;;;8.65;3.05;;;17.00;99.90;;;;;;5153204;27;20039;-79
2022/05/16 07:04:44;;;;;;;5.88;2.38;;;17.20;99.90;;;;;;5126440;27;20122;-77
2022/05/16 07:07:10;;;;;;;11.32;2.58;;;17.30;99.90;;;;;;5135706;27;20125;-79
2022/05/16 07:09:39;;;;;;;7.82;2.47;;;17.40;99.90;;;;;;5135359;27;20043;-79
2022/05/16 07:12:07;;;;;;;5.60;2.35;;;17.60;99.90;;;;;;5117809;28;20569;-78
2022/05/16 07:14:34;;;;;;;11.00;2.25;;;17.70;99.90;;;;;;5133283;27;20039;-79
2022/05/16 07:17:01;;;;;;;9.13;3.00;;;17.80;99.90;;;;;;5115351;28;20377;-79
2022/05/16 07:19:31;;;;;;;7.13;2.60;;;17.90;99.90;;;;;;5135095;27;20490;-79
2022/05/16 07:21:57;;;;;;;10.20;2.58;;;18.00;99.90;;;;;;5135693;27;20047;-78
2022/05/16 07:24:23;;;;;;;7.55;2.50;;;18.10;99.90;;;;;;5118065;27;20123;-78
2022/05/16 07:29:33;;;;;;;10.68;2.97;;;18.20;99.90;;;;;;5120101;27;20061;-79
2022/05/16 07:31:59;;;;;;;9.90;3.80;;;18.20;99.90;;;;;;5141772;27;20035;-78
2022/05/16 07:34:25;;;;;;;8.57;2.65;;;18.30;99.90;;;;;;5156981;27;20035;-78
2022/05/16 07:36:50;;;;;;;7.35;2.30;;;18.40;99.90;;;;;;5147239;27;20118;-77
2022/05/16 07:39:16;;;;;;;9.15;2.95;;;18.50;99.90;;;;;;5136376;27;20031;-78
2022/05/16 07:41:43;;;;;;;10.10;3.00;;;18.50;99.90;;;;;;5122172;27;20055;-79
2022/05/16 07:44:09;;;;;;;9.77;2.90;;;18.60;99.90;;;;;;5157785;27;20118;-79
2022/05/16 07:46:35;;;;;;;10.32;2.55;;;18.70;99.90;;;;;;5128394;27;20131;-79
2022/05/16 07:49:01;;;;;;;12.40;3.05;;;18.80;99.90;;;;;;5136847;27;20095;-79
2022/05/16 07:51:26;;;;;;;11.05;3.40;;;18.90;99.90;;;;;;5118020;27;20043;-78
2022/05/16 07:53:52;;;;;;;9.60;2.65;;;19.00;99.90;;;;;;5099484;27;20460;-79
2022/05/16 07:56:18;;;;;;;9.70;2.67;;;19.10;99.90;;;;;;5135826;27;20077;-79
2022/05/16 07:58:44;;;;;;;15.65;2.83;;;19.10;99.90;;;;;;5127419;27;20047;-78
2022/05/16 08:01:09;;;;;;;15.07;2.97;;;19.30;99.90;;;;;;5142156;27;20513;-77
2022/05/16 08:03:35;;;;;;;9.18;2.70;;;19.40;99.90;;;;;;5138342;27;20082;-79
2022/05/16 08:06:01;;;;;;;10.23;2.70;;;19.40;99.90;;;;;;5135656;27;20035;-78
2022/05/16 08:11:12;;;;;;;10.70;2.42;;;19.60;99.90;;;;;;5117922;27;20055;-80
2022/05/16 08:13:39;;;;;;;11.35;3.08;;;19.80;99.90;;;;;;5137091;27;20038;-78
2022/05/16 08:16:04;;;;;;;16.85;2.85;;;19.90;99.90;;;;;;5145309;27;20469;-79
2022/05/16 08:18:30;;;;;;;14.43;3.35;;;20.00;99.90;;;;;;5140227;27;20081;-78
2022/05/16 08:20:56;;;;;;;9.80;2.45;;;20.10;99.90;;;;;;5116982;27;20079;-80
2022/05/16 08:23:26;;;;;;;13.13;2.65;;;20.20;99.90;;;;;;5137938;27;20067;-79
2022/05/16 08:25:53;;;;;;;9.18;2.85;;;20.20;99.90;;;;;;5141445;27;20060;-79
2022/05/16 08:28:19;;;;;;;8.00;3.25;;;20.30;99.90;;;;;;5139326;27;20039;-80
2022/05/16 08:30:45;;;;;;;8.20;2.58;;;20.40;99.90;;;;;;5121443;27;20054;-78
2022/05/16 08:33:12;;;;;;;8.35;2.92;;;20.50;99.90;;;;;;5146571;27;20039;-79
2022/05/16 08:35:38;;;;;;;12.48;2.92;;;20.60;99.90;;;;;;5137156;27;20073;-78
2022/05/16 08:41:05;;;;;;;9.02;2.60;;;20.70;99.90;;;;;;5118758;27;20047;-78
2022/05/16 08:43:46;;;;;;;10.85;3.50;;;20.60;99.90;;;;;;5117004;27;20043;-79
2022/05/16 08:46:26;;;;;;;8.27;2.90;;;20.60;99.90;;;;;;5142900;27;20393;-78
2022/05/16 08:49:07;;;;;;;10.10;3.10;;;20.60;99.90;;;;;;5136677;27;20082;-78
2022/05/16 08:51:33;;;;;;;7.13;2.30;;;20.50;99.90;;;;;;5132582;27;20062;-79
2022/05/16 08:54:02;;;;;;;12.20;2.83;;;20.50;99.90;;;;;;5100421;27;20039;-79
2022/05/16 08:56:32;;;;;;;8.00;2.85;;;20.50;99.90;;;;;;5134085;27;20051;-78
2022/05/16 08:59:20;;;;;;;9.10;3.05;;;20.50;99.90;;;;;;5136062;27;20050;-79
2022/05/16 09:01:55;;;;;;;12.77;3.30;;;20.50;99.90;;;;;;5154419;27;20050;-78
2022/05/16 09:04:30;;;;;;;10.82;2.80;;;20.60;99.90;;;;;;5127672;27;20035;-78
2022/05/16 09:07:05;;;;;;;8.93;2.78;;;20.60;99.90;;;;;;5135187;27;20038;-79
2022/05/16 09:10:01;;;;;;;8.98;3.10;;;20.60;99.90;;;;;;5134733;27;20069;-79
2022/05/16 09:12:43;;;;;;;12.07;2.78;;;20.60;99.90;;;;;;5153678;27;20038;-78
2022/05/16 09:15:24;;;;;;;6.80;2.65;;;20.60;99.90;;;;;;5151938;27;20042;-78
2022/05/16 09:18:15;;;;;;;8.18;2.47;;;20.70;99.90;;;;;;5128975;27;20057;-79
2022/05/16 09:20:50;;;;;;;8.88;2.53;;;20.80;99.90;;;;;;5135334;27;20043;-78
2022/05/16 09:23:27;;;;;;;7.43;2.10;;;20.90;99.90;;;;;;5155103;27;20042;-78
2022/05/16 09:26:11;;;;;;;12.82;2.72;;;21.00;99.90;;;;;;5135775;27;20034;-78
2022/05/16 09:28:49;;;;;;;7.40;2.90;;;21.10;99.90;;;;;;5155509;27;20058;-78
2022/05/16 09:31:42;;;;;;;13.98;3.28;;;21.20;99.90;;;;;;5114198;27;20640;-79
2022/05/16 09:34:09;;;;;;;10.07;2.97;;;21.40;99.90;;;;;;5119483;27;20047;-78
2022/05/16 09:36:41;;;;;;;11.05;2.97;;;21.60;99.90;;;;;;5144190;27;20042;-79
2022/05/16 09:39:09;;;;;;;10.05;2.53;;;21.70;99.90;;;;;;5136095;27;20042;-77
2022/05/16 09:42:03;;;;;;;9.50;2.60;;;21.90;99.90;;;;;;5135509;27;20061;-78
2022/05/16 09:44:55;;;;;;;10.18;2.92;;;22.00;99.90;;;;;;5154406;27;20046;-79
2022/05/16 09:47:34;;;;;;;8.57;2.70;;;22.20;99.90;;;;;;5122063;27;20054;-78
2022/05/16 09:50:05;;;;;;;10.27;2.90;;;22.20;99.90;;;;;;5135096;27;20550;-79
2022/05/16 09:53:09;;;;;;;11.23;2.80;;;22.30;99.90;;;;;;5134595;27;20100;-79
2022/05/16 09:55:53;;;;;;;4.70;1.95;;;22.40;99.90;;;;;;5110863;27;20062;-79
2022/05/16 09:58:22;;;;;;;13.43;2.97;;;22.50;99.90;;;;;;5117025;27;20247;-78
2022/05/16 10:00:55;;;;;;;12.57;2.85;;;22.50;99.70;;;;;;5154254;27;20043;-80
2022/05/16 10:03:27;;;;;;;11.18;2.63;;;22.60;99.10;;;;;;5122095;27;20053;-78
2022/05/16 10:05:57;;;;;;;9.93;2.67;;;22.60;98.50;;;;;;5133702;27;20051;-79
2022/05/16 10:08:30;;;;;;;7.63;2.33;;;22.70;98.00;;;;;;5129484;27;20045;-79
2022/05/16 10:10:58;;;;;;;12.73;3.33;;;22.70;97.70;;;;;;5153596;27;20147;-79
2022/05/16 10:13:25;;;;;;;7.63;3.00;;;22.80;97.30;;;;;;5118410;27;20045;-80
2022/05/16 10:15:55;;;;;;;10.02;2.97;;;22.90;97.50;;;;;;5135120;27;20041;-80
2022/05/16 10:18:24;;;;;;;8.43;2.65;;;23.00;98.00;;;;;;5104926;28;20439;-79
2022/05/16 10:20:58;;;;;;;8.07;2.80;;;23.10;97.40;;;;;;5115656;27;20075;-79
2022/05/16 10:23:32;;;;;;;13.87;2.97;;;23.20;97.20;;;;;;5122367;28;20522;-78
2022/05/16 10:26:07;;;;;;;;;;;23.20;96.60;;;;;;5116108;28;20368;-77
2022/05/16 10:28:39;;;;;;;86.95;6.50;;;23.30;96.80;;;;;;5134558;27;19927;-78
2022/05/16 10:34:02;;;;;;;12.77;2.70;;;23.30;95.40;;;;;;5149214;27;20046;-78
2022/05/16 10:36:31;;;;;;;12.35;2.90;;;23.30;96.60;;;;;;5127530;28;20051;-79
2022/05/16 10:39:15;;;;;;;6.80;2.65;;;23.20;97.20;;;;;;5132415;27;20042;-79
2022/05/16 10:42:06;;;;;;;8.40;2.85;;;23.20;97.90;;;;;;5134098;27;20045;-79
2022/05/16 10:44:35;;;;;;;8.40;2.50;;;23.00;98.00;;;;;;5135999;27;20116;-79
2022/05/16 10:47:15;;;;;;;8.45;2.30;;;22.90;98.30;;;;;;5120922;28;20051;-80
2022/05/16 10:49:57;;;;;;;9.00;2.90;;;22.90;98.20;;;;;;5115043;28;20439;-80
2022/05/16 10:52:32;;;;;;;8.10;1.83;;;22.80;98.00;;;;;;5134031;27;20455;-79
2022/05/16 10:54:58;;;;;;;9.88;2.15;;;22.70;98.60;;;;;;5133342;27;20142;-79
2022/05/16 10:57:31;;;;;;;10.95;2.80;;;22.70;98.90;;;;;;5138860;27;20043;-80
2022/05/16 11:00:18;;;;;;;5.72;2.00;;;22.70;98.70;;;;;;5132090;27;20050;-79
2022/05/16 11:03:03;;;;;;;10.20;2.38;;;22.70;99.30;;;;;;5134625;27;20050;-80
2022/05/16 11:05:56;;;;;;;8.10;2.45;;;22.70;99.60;;;;;;5121799;27;20046;-79
2022/05/16 11:08:29;;;;;;;10.70;2.88;;;22.70;99.50;;;;;;5139826;27;20057;-80
2022/05/16 11:11:27;;;;;;;7.78;2.70;;;22.70;99.90;;;;;;5137860;27;20062;-80
2022/05/16 11:14:15;;;;;;;5.78;2.28;;;22.70;99.90;;;;;;5135427;27;20412;-80
2022/05/16 11:16:41;;;;;;;10.00;3.22;;;22.70;99.90;;;;;;5137365;27;20051;-79
2022/05/16 11:19:24;;;;;;;8.32;2.47;;;22.70;99.90;;;;;;5122459;27;20047;-79
2022/05/16 11:22:14;;;;;;;8.27;2.72;;;22.70;99.90;;;;;;5156411;27;20514;-80
2022/05/16 11:25:10;;;;;;;11.98;3.20;;;22.90;99.90;;;;;;5136410;27;20136;-80
2022/05/16 11:27:45;;;;;;;16.90;2.72;;;22.90;99.90;;;;;;5135508;27;20065;-80
2022/05/16 11:30:35;;;;;;;9.70;2.90;;;23.00;99.90;;;;;;5137791;27;20094;-79
2022/05/16 11:33:15;;;;;;;9.07;3.15;;;23.10;99.90;;;;;;5158078;27;20057;-80
2022/05/16 11:35:54;;;;;;;10.13;3.30;;;23.20;99.90;;;;;;5155517;27;20038;-79
2022/05/16 11:38:37;;;;;;;8.02;3.10;;;23.30;99.90;;;;;;5156657;27;20035;-80
2022/05/16 11:41:35;;;;;;;14.35;3.60;;;23.30;99.90;;;;;;5139081;27;20486;-79
2022/05/16 11:44:20;;;;;;;6.97;2.95;;;23.30;99.50;;;;;;5136412;27;20038;-81
2022/05/16 11:47:10;;;;;;;10.90;3.15;;;23.30;99.40;;;;;;5136334;27;20035;-80
2022/05/16 11:49:49;;;;;;;10.10;3.13;;;23.20;99.40;;;;;;5134893;27;20053;-79
2022/05/16 11:52:52;;;;;;;13.00;3.33;;;23.10;99.90;;;;;;5149252;27;20074;-79
2022/05/16 12:01:04;;;;;;;9.80;3.20;;;22.90;99.90;;;;;;5136807;27;20077;-79
2022/05/16 12:03:42;;;;;;;13.50;3.22;;;22.80;99.90;;;;;;5120397;27;20085;-79
2022/05/16 12:06:26;;;;;;;10.75;3.47;;;22.70;99.90;;;;;;5156320;27;20046;-79
2022/05/16 12:09:17;;;;;;;11.38;2.90;;;22.70;99.90;;;;;;5132014;27;20485;-79
2022/05/16 12:12:12;;;;;;;10.23;3.53;;;22.80;99.90;;;;;;5136597;27;20042;-79
2022/05/16 12:14:38;;;;;;;;;;;22.90;99.90;;;;;;5138223;27;20039;-79
2022/05/16 12:17:10;;;;;;;7.35;2.70;;;23.00;99.90;;;;;;5156519;27;19926;-79
2022/05/16 12:19:37;;;;;;;10.00;3.58;;;23.10;99.90;;;;;;5135393;27;20083;-79
2022/05/16 12:22:38;;;;;;;6.63;3.10;;;23.20;99.90;;;;;;5136331;27;20112;-79
2022/05/16 12:25:25;;;;;;;8.63;2.90;;;23.30;99.90;;;;;;5128076;27;20051;-78
2022/05/16 12:28:16;;;;;;;11.75;3.65;;;23.30;99.90;;;;;;5135596;27;20554;-79
2022/05/16 12:31:06;;;;;;;12.82;3.40;;;23.40;99.90;;;;;;5117621;27;20049;-79
2022/05/16 12:33:40;;;;;;;9.70;4.88;;;23.40;99.90;;;;;;5099067;27;20051;-80
2022/05/16 12:36:12;;;;;;;11.93;4.10;;;23.40;99.90;;;;;;5117605;27;20051;-80
2022/05/16 12:38:38;;;;;;;14.23;3.25;;;23.40;99.90;;;;;;5131325;27;20043;-80
2022/05/16 12:41:38;;;;;;;10.98;3.97;;;23.40;99.90;;;;;;5105326;27;20050;-79
2022/05/16 12:44:20;;;;;;;5.00;2.78;;;23.50;99.90;;;;;;5151706;27;20125;-79
2022/05/16 12:47:08;;;;;;;14.20;5.28;;;23.60;99.90;;;;;;5130596;27;20073;-79
2022/05/16 12:49:50;;;;;;;8.63;3.83;;;23.70;99.90;;;;;;5121432;27;20038;-77
2022/05/16 12:53:01;;;;;;;10.50;4.45;;;23.70;99.90;;;;;;5120106;27;20078;-81
2022/05/16 12:55:38;;;;;;;15.30;4.60;;;23.70;99.90;;;;;;5143844;27;20486;-79
2022/05/16 12:58:21;;;;;;;11.48;4.03;;;23.70;99.90;;;;;;5124492;27;20096;-80
2022/05/16 13:01:05;;;;;;;15.90;4.07;;;23.60;99.90;;;;;;5143941;27;20083;-79
2022/05/16 13:04:09;;;;;;;19.85;4.22;;;23.60;99.90;;;;;;5153028;27;20034;-79
2022/05/16 13:06:45;;;;;;;9.63;3.97;;;23.60;99.90;;;;;;5122195;27;20049;-79
2022/05/16 13:09:11;;;;;;;9.60;4.00;;;23.50;99.90;;;;;;5113156;27;20506;-79
2022/05/16 13:12:15;;;;;;;7.40;3.67;;;23.40;99.90;;;;;;5137741;27;20077;-80
2022/05/16 13:14:56;;;;;;;7.88;4.30;;;23.40;99.90;;;;;;5153753;27;20080;-79
2022/05/16 13:17:35;;;;;;;14.13;4.30;;;23.30;99.90;;;;;;5130657;27;20051;-79
2022/05/16 13:20:19;;;;;;;14.45;4.95;;;23.30;99.90;;;;;;5146584;27;20081;-79
2022/05/16 13:22:48;;;;;;;10.55;4.20;;;23.40;99.90;;;;;;5115860;27;20479;-80
2022/05/16 13:25:15;;;;;;;8.90;3.50;;;23.40;99.90;;;;;;5129769;27;20544;-80
2022/05/16 13:30:33;;;;;;;15.13;5.15;;;23.50;99.90;;;;;;5134928;27;20133;-79
2022/05/16 13:32:59;;;;;;;10.85;5.32;;;23.50;99.90;;;;;;5151005;27;20125;-80
2022/05/16 13:35:28;;;;;;;13.77;5.88;;;23.60;99.90;;;;;;5155297;27;20046;-79
2022/05/16 13:37:56;;;;;;;14.02;6.47;;;23.80;99.90;;;;;;5120612;27;20069;-79
2022/05/16 13:40:27;;;;;;;11.43;5.20;;;24.00;99.90;;;;;;5134578;27;20393;-79